メインページ
METAR-TAF:

METAR-TAF

空港 :

ハガニア, グアム, アメリカ合衆国

グアム国際空港

緯度: 13-29N, 経度: 144-48E, 海抜: 91m

現時点の気象観測

当レポートは34分前の19:54(UTC)に作成
南/南東の風 4kt
気温 27°C
湿度 94%
気圧 1009 hPa
視程: 16.1km
高度4500ftの雲はほとんどない

METAR: PGUM 231954Z 16004KT 10SM FEW045 27/26 A2980 RMK AO2 SLP084 T02720261

時間: 06:28 (20:28 UTC)

予報

当レポートは3時間8分前の17:20(UTC)に作成
予報は23日の 18時(UTC)から 24日の 24時(UTC)まで有効
南/南東の風 8kt
視程: 10km
高度2000ftの雲は散在している
高度14000ftの千切れ雲あり
近辺でにわか雨

TAF: PGUM 231720Z 2318/2424 15008KT P6SM VCSH SCT020 BKN140

4,000以上の空港の気象観測と天気予報(METAR報とTAF報)

利用可能な観測所は地図上に黄色い丸と赤い丸で示す。

丸の上にカーソルを重ねると観測所名を参照できる。

次にクリックすると気象観測と天気予報を参照できる。

マップの切り替え:黒色「×」印の緑ボタンをクリックして拡大、「-」印の緑ボタンをクリックして縮小、緑色の三角印をクリックして隣りの地図に切り替え


METAR-TAF: